Terminal Aerodrome Forecast
Issued by NWS Duluth, MN

Home | Current Version | Previous Version | Text Only | Print | Product List | Glossary On
Versions: 1 2 3 4 5 6 7 8 9 10 11 12 13 14 15 16 17 18 19
000
FTUS43 KDLH 251500 AAA
TAFDLH
TAF AMD
KDLH 251534Z 2516/2612 07018G27KT 1 1/2SM -RA BR OVC006
     FM251800 06013G20KT 1SM -RA BR OVC010
     FM260100 36006KT 1SM -DZ BR OVC002
     FM261000 VRB03KT 3SM BR OVC007=

USA.gov is the U.S. government's official web portal to all federal, state and local government web resources and services.